createdAt,value
2022-10-21T00:00:03.668Z,16.60
2022-10-21T00:02:33.392Z,16.60
2022-10-21T00:05:03.092Z,16.60
2022-10-21T00:07:32.811Z,16.50
2022-10-21T00:10:02.568Z,16.50
2022-10-21T00:12:32.574Z,16.50
2022-10-21T00:15:05.094Z,16.50
2022-10-21T00:17:34.899Z,16.50
2022-10-21T00:22:34.945Z,16.40
2022-10-21T00:25:04.839Z,16.40
2022-10-21T00:27:34.890Z,16.30
2022-10-21T00:30:08.565Z,16.30
2022-10-21T00:32:38.653Z,16.30
2022-10-21T00:35:08.893Z,16.40
2022-10-21T00:37:38.901Z,16.30
2022-10-21T00:40:09.326Z,16.40
2022-10-21T00:42:45.513Z,16.40
2022-10-21T00:45:24.941Z,16.40
2022-10-21T00:47:56.867Z,16.40
2022-10-21T00:50:31.732Z,16.40
2022-10-21T00:53:01.849Z,16.30
2022-10-21T00:55:33.167Z,16.40
2022-10-21T00:58:03.392Z,16.40
2022-10-21T01:00:35.654Z,16.30
2022-10-21T01:03:06.239Z,16.30
2022-10-21T01:05:36.382Z,16.30
2022-10-21T01:08:06.302Z,16.20
2022-10-21T01:10:36.055Z,16.20
2022-10-21T01:13:11.039Z,16.30
2022-10-21T01:15:48.053Z,16.30
2022-10-21T01:18:21.037Z,16.30
2022-10-21T01:20:59.099Z,16.30
2022-10-21T01:23:43.792Z,16.20
2022-10-21T01:26:31.123Z,16.20
2022-10-21T01:29:07.243Z,16.30
2022-10-21T01:31:41.360Z,16.20
2022-10-21T01:34:13.220Z,16.20
2022-10-21T01:36:45.068Z,16.20
2022-10-21T01:39:19.543Z,16.30
2022-10-21T01:41:54.781Z,16.30
2022-10-21T01:44:27.509Z,16.30
2022-10-21T01:47:00.706Z,16.30
2022-10-21T01:49:32.389Z,16.30
2022-10-21T01:52:02.910Z,16.30
2022-10-21T01:54:35.601Z,16.30
2022-10-21T01:57:06.377Z,16.20
2022-10-21T01:59:36.813Z,16.20
2022-10-21T02:02:09.791Z,16.20
2022-10-21T02:04:41.610Z,16.10
2022-10-21T02:07:11.820Z,16.10
2022-10-21T02:09:41.537Z,16.00
2022-10-21T02:12:12.408Z,16.00
2022-10-21T02:14:44.487Z,16.00
2022-10-21T02:17:18.411Z,16.00
2022-10-21T02:19:48.830Z,16.00
2022-10-21T02:22:21.448Z,16.00
2022-10-21T02:24:54.122Z,15.90
2022-10-21T02:27:24.044Z,15.90
2022-10-21T02:29:55.284Z,15.90
2022-10-21T02:32:32.450Z,15.80
2022-10-21T02:35:09.109Z,15.70
2022-10-21T02:37:43.300Z,15.70
2022-10-21T02:40:16.798Z,15.70
2022-10-21T02:42:48.280Z,15.60
2022-10-21T02:45:19.338Z,15.60
2022-10-21T02:47:52.245Z,15.70
2022-10-21T02:50:22.064Z,15.60
2022-10-21T02:52:51.752Z,15.60
2022-10-21T02:55:21.478Z,15.60
2022-10-21T02:57:51.452Z,15.50
2022-10-21T03:00:21.178Z,15.50
2022-10-21T03:02:53.559Z,15.50
2022-10-21T03:05:23.314Z,15.40
2022-10-21T03:07:53.065Z,15.50
2022-10-21T03:10:22.784Z,15.40
2022-10-21T03:12:52.572Z,15.30
2022-10-21T03:15:22.262Z,15.30
2022-10-21T03:17:54.604Z,15.20
2022-10-21T03:20:24.304Z,15.20
2022-10-21T03:22:54.119Z,15.10
2022-10-21T03:25:23.820Z,15.10
2022-10-21T03:27:53.533Z,15.00
2022-10-21T03:30:23.379Z,15.00
2022-10-21T03:32:55.654Z,15.00
2022-10-21T03:35:25.624Z,14.90
2022-10-21T03:40:30.030Z,14.90
2022-10-21T03:42:59.808Z,14.90
2022-10-21T03:45:29.695Z,14.80
2022-10-21T03:48:01.947Z,14.80
2022-10-21T03:50:31.670Z,14.80
2022-10-21T03:53:09.958Z,14.80
2022-10-21T03:55:43.609Z,14.80
2022-10-21T03:58:13.288Z,14.70
2022-10-21T04:00:43.018Z,14.70
2022-10-21T04:03:15.266Z,14.70
2022-10-21T04:05:44.966Z,14.70
2022-10-21T04:08:14.671Z,14.70
2022-10-21T04:10:44.428Z,14.70
2022-10-21T04:13:14.258Z,14.70
2022-10-21T04:15:44.006Z,14.70
2022-10-21T04:18:16.324Z,14.70
2022-10-21T04:20:45.966Z,14.70
2022-10-21T04:23:15.631Z,14.70
2022-10-21T04:25:46.830Z,14.70
2022-10-21T04:28:16.750Z,14.70
2022-10-21T04:30:46.457Z,14.70
2022-10-21T04:33:18.836Z,14.70
2022-10-21T04:35:48.576Z,14.70
2022-10-21T04:38:18.414Z,14.80
2022-10-21T04:40:48.053Z,14.70
2022-10-21T04:43:17.724Z,14.70
2022-10-21T04:45:47.385Z,14.70
2022-10-21T04:48:20.385Z,14.70
2022-10-21T04:50:51.134Z,14.70
2022-10-21T04:53:20.791Z,14.60
2022-10-21T04:55:53.068Z,14.60
2022-10-21T04:58:22.998Z,14.60
2022-10-21T05:00:53.123Z,14.60
2022-10-21T05:03:25.490Z,14.60
2022-10-21T05:05:55.557Z,14.60
2022-10-21T05:08:25.279Z,14.70
2022-10-21T05:11:00.029Z,14.60
2022-10-21T05:13:29.927Z,14.70
2022-10-21T05:16:00.677Z,14.70
2022-10-21T05:18:33.023Z,14.70
2022-10-21T05:21:02.729Z,14.70
2022-10-21T05:23:32.409Z,14.60
2022-10-21T05:26:02.061Z,14.60
2022-10-21T05:28:31.729Z,14.60
2022-10-21T05:31:01.411Z,14.60
2022-10-21T05:33:33.699Z,14.60
2022-10-21T05:36:07.619Z,14.60
2022-10-21T05:38:37.778Z,14.60
2022-10-21T05:41:07.641Z,14.60
2022-10-21T05:43:37.301Z,14.70
2022-10-21T05:46:08.610Z,14.70
2022-10-21T05:48:40.992Z,14.70
2022-10-21T05:51:11.272Z,14.70
2022-10-21T05:53:41.613Z,14.70
2022-10-21T05:56:11.538Z,14.70
2022-10-21T05:58:41.290Z,14.70
2022-10-21T06:01:11.318Z,14.80
2022-10-21T06:03:43.906Z,14.80
2022-10-21T06:06:13.585Z,14.80
2022-10-21T06:08:43.415Z,14.80
2022-10-21T06:11:14.189Z,14.80
2022-10-21T06:13:44.151Z,14.80
2022-10-21T06:16:14.665Z,14.80
2022-10-21T06:18:47.188Z,14.80
2022-10-21T06:21:16.950Z,14.80
2022-10-21T06:23:47.052Z,14.80
2022-10-21T06:26:18.329Z,14.70
2022-10-21T06:28:48.081Z,14.70
2022-10-21T06:31:18.644Z,14.80
2022-10-21T06:33:51.075Z,14.80
2022-10-21T06:36:20.828Z,14.80
2022-10-21T06:38:51.401Z,14.80
2022-10-21T06:41:21.139Z,14.80
2022-10-21T06:43:51.035Z,14.90
2022-10-21T06:46:20.772Z,14.90
2022-10-21T06:48:53.162Z,14.90
2022-10-21T06:51:23.782Z,14.90
2022-10-21T06:53:55.110Z,14.90
2022-10-21T06:56:25.268Z,14.90
2022-10-21T06:58:55.402Z,15.00
2022-10-21T07:01:40.935Z,14.90
2022-10-21T07:04:14.041Z,15.00
2022-10-21T07:06:43.753Z,14.90
2022-10-21T07:09:13.463Z,14.90
2022-10-21T07:11:43.881Z,14.90
2022-10-21T07:14:14.627Z,15.00
2022-10-21T07:16:44.371Z,15.00
2022-10-21T07:19:16.980Z,15.00
2022-10-21T07:21:46.921Z,15.00
2022-10-21T07:24:21.412Z,15.00
2022-10-21T07:26:52.762Z,15.00
2022-10-21T07:29:22.643Z,15.00
2022-10-21T07:31:52.485Z,15.00
2022-10-21T07:34:25.587Z,15.10
2022-10-21T07:36:55.774Z,15.10
2022-10-21T07:39:26.547Z,15.00
2022-10-21T07:41:57.350Z,15.00
2022-10-21T07:44:27.993Z,15.10
2022-10-21T07:46:57.863Z,15.10
2022-10-21T07:49:30.150Z,15.00
2022-10-21T07:51:59.843Z,15.00
2022-10-21T07:54:29.504Z,15.10
2022-10-21T07:56:59.328Z,15.10
2022-10-21T07:59:29.038Z,15.20
2022-10-21T08:01:58.834Z,15.30
2022-10-21T08:04:33.480Z,15.40
2022-10-21T08:07:03.179Z,15.50
2022-10-21T08:09:32.868Z,15.50
2022-10-21T08:12:02.632Z,15.40
2022-10-21T08:14:32.347Z,15.50
2022-10-21T08:17:02.014Z,15.50
2022-10-21T08:19:34.499Z,15.60
2022-10-21T08:22:04.425Z,15.60
2022-10-21T08:24:35.689Z,15.70
2022-10-21T08:27:08.361Z,15.70
2022-10-21T08:29:39.938Z,16.00
2022-10-21T08:32:09.928Z,15.90
2022-10-21T08:34:44.487Z,16.10
2022-10-21T08:37:14.147Z,16.20
2022-10-21T08:39:43.857Z,16.30
2022-10-21T08:42:15.229Z,16.30
2022-10-21T08:44:47.636Z,16.40
2022-10-21T08:47:23.452Z,16.40
2022-10-21T08:49:58.912Z,16.50
2022-10-21T08:52:30.979Z,16.50
2022-10-21T08:55:02.978Z,16.50
2022-10-21T08:57:34.648Z,16.60
2022-10-21T09:00:04.462Z,16.70
2022-10-21T09:02:41.697Z,16.80
2022-10-21T09:05:28.874Z,16.90
2022-10-21T09:08:03.550Z,17.00
2022-10-21T09:10:36.824Z,17.30
2022-10-21T09:13:14.549Z,17.60
2022-10-21T09:15:50.129Z,17.70
2022-10-21T09:18:26.615Z,18.30
2022-10-21T09:21:05.863Z,18.40
2022-10-21T09:23:45.865Z,19.20
2022-10-21T09:26:21.699Z,20.50
2022-10-21T09:28:53.391Z,21.10
2022-10-21T09:31:24.005Z,21.60
2022-10-21T09:33:58.066Z,21.40
2022-10-21T09:36:33.715Z,21.40
2022-10-21T09:39:04.910Z,22.30
2022-10-21T09:41:36.469Z,22.40
2022-10-21T09:44:06.179Z,23.10
2022-10-21T09:46:35.894Z,25.80
2022-10-21T09:51:58.277Z,27.40
2022-10-21T09:54:29.106Z,27.60
2022-10-21T09:57:03.141Z,28.40
2022-10-21T09:59:33.632Z,29.20
2022-10-21T10:02:08.734Z,29.40
2022-10-21T10:04:38.603Z,30.00
2022-10-21T10:07:23.496Z,30.00
2022-10-21T10:09:55.825Z,29.70
2022-10-21T10:12:26.268Z,28.60
2022-10-21T10:14:55.982Z,27.70
2022-10-21T10:17:30.741Z,26.90
2022-10-21T10:20:15.465Z,26.20
2022-10-21T10:22:45.975Z,26.20
2022-10-21T10:25:28.611Z,26.20
2022-10-21T10:27:59.494Z,26.10
2022-10-21T10:30:32.347Z,26.00
2022-10-21T10:33:09.483Z,25.30
2022-10-21T10:35:40.141Z,24.30
2022-10-21T10:38:09.924Z,24.20
2022-10-21T10:40:43.478Z,24.40
2022-10-21T10:43:16.705Z,24.90
2022-10-21T10:45:50.564Z,26.30
2022-10-21T10:48:23.471Z,26.40
2022-10-21T10:50:53.297Z,26.50
2022-10-21T10:53:28.906Z,27.20
2022-10-21T10:56:06.256Z,27.30
2022-10-21T10:58:38.206Z,27.30
2022-10-21T11:01:11.143Z,26.40
2022-10-21T11:03:42.608Z,26.60
2022-10-21T11:06:17.175Z,24.40
2022-10-21T11:08:49.025Z,24.00
2022-10-21T11:11:24.915Z,23.80
2022-10-21T11:13:54.677Z,23.50
2022-10-21T11:16:40.769Z,20.90
2022-10-21T11:19:17.201Z,23.10
2022-10-21T11:21:48.422Z,23.00
2022-10-21T11:24:33.088Z,22.60
2022-10-21T11:27:08.372Z,22.60
2022-10-21T11:29:40.974Z,22.40
2022-10-21T11:32:15.194Z,22.40
2022-10-21T11:34:53.064Z,22.30
2022-10-21T11:37:27.909Z,22.40
2022-10-21T11:40:00.682Z,22.30
2022-10-21T11:42:36.079Z,22.20
2022-10-21T11:45:15.374Z,22.20
2022-10-21T11:47:48.906Z,22.30
2022-10-21T11:50:22.311Z,22.30
2022-10-21T11:52:58.983Z,22.30
2022-10-21T11:55:35.142Z,22.30
2022-10-21T11:58:11.183Z,22.10
2022-10-21T12:00:45.302Z,21.90
2022-10-21T12:03:28.246Z,21.80
2022-10-21T12:06:02.927Z,21.80
2022-10-21T12:08:39.666Z,21.70
2022-10-21T12:11:14.902Z,21.70
2022-10-21T12:13:48.757Z,21.80
2022-10-21T12:16:20.416Z,22.00
2022-10-21T12:18:53.105Z,22.00
2022-10-21T12:21:24.079Z,23.20
2022-10-21T12:23:56.820Z,21.50
2022-10-21T12:26:29.365Z,21.50
2022-10-21T12:29:05.590Z,21.30
2022-10-21T12:31:40.956Z,21.20
2022-10-21T12:34:12.439Z,21.20
2022-10-21T12:36:43.739Z,21.20
2022-10-21T12:39:15.564Z,21.20
2022-10-21T12:41:46.375Z,21.10
2022-10-21T12:44:24.440Z,21.10
2022-10-21T12:46:55.149Z,21.00
2022-10-21T12:49:30.767Z,20.90
2022-10-21T12:52:05.262Z,20.80
2022-10-21T12:54:38.787Z,20.90
2022-10-21T12:57:09.960Z,20.90
2022-10-21T12:59:43.473Z,20.90
2022-10-21T13:02:21.878Z,20.90
2022-10-21T13:04:54.010Z,20.90
2022-10-21T13:07:31.092Z,20.80
2022-10-21T13:10:15.803Z,20.80
2022-10-21T13:12:45.438Z,20.80
2022-10-21T13:15:39.043Z,20.90
2022-10-21T13:18:12.552Z,20.90
2022-10-21T13:20:49.407Z,21.00
2022-10-21T13:23:33.181Z,20.90
2022-10-21T13:26:24.324Z,20.90
2022-10-21T13:29:01.975Z,20.90
2022-10-21T13:31:31.958Z,20.80
2022-10-21T13:34:04.510Z,20.80
2022-10-21T13:36:40.038Z,20.80
2022-10-21T13:39:11.872Z,20.90
2022-10-21T13:41:41.912Z,20.80
2022-10-21T13:44:26.744Z,20.90
2022-10-21T13:46:56.429Z,20.80
2022-10-21T13:49:31.919Z,20.80
2022-10-21T13:52:01.732Z,20.80
2022-10-21T13:54:37.121Z,20.70
2022-10-21T13:57:08.532Z,20.70
2022-10-21T13:59:38.312Z,20.70
2022-10-21T14:02:08.019Z,20.70
2022-10-21T14:04:43.098Z,20.60
2022-10-21T14:07:17.159Z,20.60
2022-10-21T14:09:48.051Z,20.60
2022-10-21T14:12:22.525Z,20.60
2022-10-21T14:14:52.423Z,20.60
2022-10-21T14:17:23.835Z,20.60
2022-10-21T14:19:57.176Z,20.60
2022-10-21T14:22:29.243Z,20.60
2022-10-21T14:25:01.975Z,20.50
2022-10-21T14:27:32.885Z,20.50
2022-10-21T14:30:04.693Z,20.50
2022-10-21T14:32:34.637Z,20.60
2022-10-21T14:35:09.463Z,20.60
2022-10-21T14:37:44.581Z,20.60
2022-10-21T14:42:48.659Z,20.50
2022-10-21T14:45:24.470Z,20.50
2022-10-21T14:47:55.868Z,20.50
2022-10-21T14:50:28.186Z,20.50
2022-10-21T14:52:57.939Z,20.50
2022-10-21T14:55:30.130Z,20.50
2022-10-21T14:58:04.559Z,20.50
2022-10-21T15:00:41.549Z,20.40
2022-10-21T15:03:12.003Z,20.30
2022-10-21T15:05:48.803Z,20.30
2022-10-21T15:08:34.767Z,20.30
2022-10-21T15:11:19.053Z,20.30
2022-10-21T15:14:03.536Z,20.30
2022-10-21T15:16:33.270Z,20.40
2022-10-21T15:19:09.578Z,20.30
2022-10-21T15:21:43.523Z,20.30
2022-10-21T15:24:19.851Z,20.40
2022-10-21T15:26:50.498Z,20.30
2022-10-21T15:29:27.398Z,20.30
2022-10-21T15:31:58.215Z,20.20
2022-10-21T15:34:27.913Z,20.30
2022-10-21T15:37:00.464Z,20.20
2022-10-21T15:39:30.189Z,20.10
2022-10-21T15:42:00.412Z,20.20
2022-10-21T15:44:30.681Z,20.10
2022-10-21T15:47:02.000Z,20.10
2022-10-21T15:49:34.311Z,20.10
2022-10-21T15:52:06.793Z,20.10
2022-10-21T15:54:36.751Z,20.10
2022-10-21T15:57:10.848Z,20.10
2022-10-21T15:59:40.542Z,20.10
2022-10-21T16:02:15.572Z,20.10
2022-10-21T16:04:46.822Z,20.10
2022-10-21T16:07:23.823Z,20.00
2022-10-21T16:09:53.604Z,19.90
2022-10-21T16:12:24.159Z,19.80
2022-10-21T16:14:54.281Z,19.80
2022-10-21T16:17:24.443Z,19.80
2022-10-21T16:19:54.186Z,19.80
2022-10-21T16:22:26.593Z,19.80
2022-10-21T16:24:56.293Z,19.70
2022-10-21T16:27:43.269Z,19.70
2022-10-21T16:30:18.442Z,19.60
2022-10-21T16:32:48.282Z,19.50
2022-10-21T16:35:18.785Z,19.50
2022-10-21T16:37:51.898Z,19.50
2022-10-21T16:40:22.547Z,19.40
2022-10-21T16:42:52.839Z,19.40
2022-10-21T16:45:23.528Z,19.30
2022-10-21T16:47:56.402Z,19.40
2022-10-21T16:50:27.367Z,19.40
2022-10-21T16:53:02.066Z,19.30
2022-10-21T16:55:31.799Z,19.30
2022-10-21T16:58:01.494Z,19.30
2022-10-21T17:00:31.243Z,19.30
2022-10-21T17:03:01.121Z,19.20
2022-10-21T17:05:30.882Z,19.30
2022-10-21T17:08:03.147Z,19.20
2022-10-21T17:10:33.046Z,19.20
2022-10-21T17:13:02.736Z,19.20
2022-10-21T17:15:32.391Z,19.20
2022-10-21T17:18:02.099Z,19.20
2022-10-21T17:20:33.219Z,19.20
2022-10-21T17:23:05.524Z,19.20
2022-10-21T17:25:35.200Z,17.10
2022-10-21T17:28:04.923Z,19.10
2022-10-21T17:30:34.610Z,19.10
2022-10-21T17:33:04.285Z,19.10
2022-10-21T17:35:33.956Z,19.10
2022-10-21T17:38:06.295Z,19.10
2022-10-21T17:40:35.995Z,19.00
2022-10-21T17:43:08.592Z,19.10
2022-10-21T17:45:38.948Z,19.00
2022-10-21T17:48:08.894Z,19.00
2022-10-21T17:50:38.807Z,19.00
2022-10-21T17:53:11.118Z,19.00
2022-10-21T17:55:40.851Z,18.90
2022-10-21T17:58:10.530Z,18.90
2022-10-21T18:00:44.700Z,18.90
2022-10-21T18:03:18.072Z,18.90
2022-10-21T18:05:47.986Z,21.60
2022-10-21T18:08:20.221Z,18.90
2022-10-21T18:10:53.999Z,18.90
2022-10-21T18:13:24.085Z,18.90
2022-10-21T18:15:54.010Z,18.80
2022-10-21T18:18:25.876Z,18.80
2022-10-21T18:20:55.580Z,18.70
2022-10-21T18:23:27.893Z,18.70
2022-10-21T18:25:59.060Z,18.70
2022-10-21T18:28:29.613Z,18.70
2022-10-21T18:30:59.368Z,18.70
2022-10-21T18:33:29.215Z,18.70
2022-10-21T18:35:59.263Z,18.70
2022-10-21T18:38:31.535Z,18.60
2022-10-21T18:41:15.417Z,18.60
2022-10-21T18:43:49.527Z,18.50
2022-10-21T18:46:19.429Z,18.60
2022-10-21T18:48:49.221Z,18.50
2022-10-21T18:51:19.899Z,18.50
2022-10-21T18:53:53.518Z,18.50
2022-10-21T18:56:24.054Z,18.40
2022-10-21T18:58:54.252Z,18.40
2022-10-21T19:01:25.440Z,18.40
2022-10-21T19:03:56.405Z,18.50
2022-10-21T19:06:36.083Z,18.50
2022-10-21T19:09:09.861Z,18.50
2022-10-21T19:11:39.676Z,18.40
2022-10-21T19:14:12.935Z,18.60
2022-10-21T19:16:44.044Z,18.40
2022-10-21T19:19:13.796Z,18.30
2022-10-21T19:21:43.827Z,18.30
2022-10-21T19:24:16.190Z,18.30
2022-10-21T19:26:46.591Z,18.30
2022-10-21T19:29:17.886Z,18.30
2022-10-21T19:31:48.257Z,18.30
2022-10-21T19:34:18.676Z,18.20
2022-10-21T19:36:48.531Z,18.20
2022-10-21T19:39:20.966Z,18.20
2022-10-21T19:41:50.669Z,18.20
2022-10-21T19:44:20.344Z,18.30
2022-10-21T19:46:50.518Z,18.20
2022-10-21T19:49:22.661Z,18.20
2022-10-21T19:51:52.372Z,18.20
2022-10-21T19:54:24.665Z,18.20
2022-10-21T19:56:54.485Z,18.20
2022-10-21T19:59:24.220Z,18.10
2022-10-21T20:01:53.933Z,18.10
2022-10-21T20:04:24.911Z,18.00
2022-10-21T20:06:54.559Z,18.00
2022-10-21T20:09:26.908Z,18.10
2022-10-21T20:11:57.468Z,18.00
2022-10-21T20:14:27.489Z,18.00
2022-10-21T20:16:57.153Z,18.00
2022-10-21T20:19:26.836Z,17.90
2022-10-21T20:21:56.510Z,17.90
2022-10-21T20:24:28.781Z,17.90
2022-10-21T20:27:01.398Z,17.90
2022-10-21T20:29:32.060Z,17.80
2022-10-21T20:32:01.893Z,17.80
2022-10-21T20:34:34.131Z,17.80
2022-10-21T20:37:06.467Z,17.80
2022-10-21T20:39:39.505Z,17.80
2022-10-21T20:42:09.236Z,17.80
2022-10-21T20:44:38.963Z,17.70
2022-10-21T20:47:08.740Z,17.70
2022-10-21T20:49:38.402Z,17.70
2022-10-21T20:52:08.155Z,17.60
2022-10-21T20:54:40.443Z,17.60
2022-10-21T20:57:10.155Z,17.60
2022-10-21T20:59:40.002Z,17.50
2022-10-21T21:02:09.779Z,17.60
2022-10-21T21:04:39.425Z,17.60
2022-10-21T21:07:09.080Z,17.50
2022-10-21T21:10:01.629Z,17.50
2022-10-21T21:12:32.260Z,17.40
2022-10-21T21:15:02.239Z,17.40
2022-10-21T21:17:31.939Z,17.20
2022-10-21T21:20:01.633Z,17.20
2022-10-21T21:22:31.492Z,17.00
2022-10-21T21:25:04.407Z,17.00
2022-10-21T21:27:34.083Z,17.00
2022-10-21T21:32:53.372Z,16.80
2022-10-21T21:35:23.098Z,16.70
2022-10-21T21:37:53.114Z,16.70
2022-10-21T21:40:25.377Z,16.80
2022-10-21T21:42:55.076Z,16.70
2022-10-21T21:45:24.781Z,16.70
2022-10-21T21:47:54.468Z,16.70
2022-10-21T21:50:24.120Z,16.60
2022-10-21T21:52:53.811Z,16.50
2022-10-21T21:55:26.165Z,16.50
2022-10-21T21:57:55.881Z,16.50
2022-10-21T22:00:25.583Z,16.40
2022-10-21T22:02:55.312Z,16.40
2022-10-21T22:05:27.086Z,16.30
2022-10-21T22:07:56.933Z,16.20
2022-10-21T22:10:29.456Z,16.20
2022-10-21T22:12:59.490Z,16.30
2022-10-21T22:15:47.216Z,16.20
2022-10-21T22:18:18.229Z,16.30
2022-10-21T22:20:48.311Z,16.30
2022-10-21T22:23:20.038Z,16.30
2022-10-21T22:25:52.330Z,16.40
2022-10-21T22:28:22.017Z,16.40
2022-10-21T22:31:01.746Z,16.40
2022-10-21T22:33:31.636Z,16.40
2022-10-21T22:36:01.385Z,16.40
2022-10-21T22:38:31.361Z,16.40
2022-10-21T22:41:07.364Z,16.40
2022-10-21T22:43:42.959Z,16.30
2022-10-21T22:49:02.763Z,16.20
2022-10-21T22:51:32.468Z,16.20
2022-10-21T22:54:02.197Z,16.10
2022-10-21T22:56:34.550Z,16.10
2022-10-21T22:59:04.365Z,16.10
2022-10-21T23:01:34.403Z,16.10
2022-10-21T23:04:05.076Z,16.00
2022-10-21T23:06:35.108Z,16.00
2022-10-21T23:09:05.191Z,15.80
2022-10-21T23:11:37.774Z,15.70
2022-10-21T23:14:09.641Z,15.70
2022-10-21T23:16:39.530Z,15.70
2022-10-21T23:19:09.553Z,15.70
2022-10-21T23:21:39.948Z,15.50
2022-10-21T23:24:09.899Z,15.70
2022-10-21T23:26:42.328Z,15.60
2022-10-21T23:29:12.006Z,15.60
2022-10-21T23:31:41.728Z,15.70
2022-10-21T23:34:11.438Z,15.80
2022-10-21T23:36:41.065Z,15.70
2022-10-21T23:39:10.745Z,15.70
2022-10-21T23:41:43.036Z,15.60
2022-10-21T23:44:12.738Z,13.80
2022-10-21T23:46:42.397Z,15.60
2022-10-21T23:49:12.121Z,15.50
2022-10-21T23:51:41.884Z,15.60
2022-10-21T23:54:11.557Z,15.60
2022-10-21T23:56:43.811Z,15.50
2022-10-21T23:59:13.497Z,15.50
